Time;durP1;ratioP1;P1;durP2;ratioP2;P2;SDS_P1;SDS_P2;PMS_P1;PMS_P2;Temp;Humidity;BMP_temperature;BMP_pressure;BME280_temperature;BME280_humidity;BME280_pressure;Samples;Min_cycle;Max_cycle;Signal;HPM_P1;HPM_P2
2023/08/27 00:01:11;;;;;;;46.70;4.97;;;16.00;1.00;;;;;;5016506;28;20380;-79
2023/08/27 00:03:46;;;;;;;43.43;5.00;;;15.90;1.00;;;;;;5021422;28;20430;-79
2023/08/27 00:06:28;;;;;;;38.30;5.33;;;15.90;1.00;;;;;;5026275;28;20484;-79
2023/08/27 00:08:58;;;;;;;47.00;4.90;;;16.00;1.00;;;;;;5028302;28;21072;-79
2023/08/27 00:11:34;;;;;;;44.97;4.80;;;15.90;1.00;;;;;;5024768;28;20495;-79
2023/08/27 00:14:00;;;;;;;41.23;4.63;;;15.90;1.00;;;;;;5030291;28;20452;-79
2023/08/27 00:16:26;;;;;;;41.63;4.93;;;15.90;1.00;;;;;;5024712;28;20482;-79
2023/08/27 00:19:10;;;;;;;37.93;4.60;;;15.90;1.00;;;;;;5033352;28;20180;-79
2023/08/27 00:21:36;;;;;;;42.30;4.87;;;15.90;1.00;;;;;;5020180;28;20176;-79
2023/08/27 00:24:05;;;;;;;39.00;4.73;;;15.90;1.00;;;;;;5025984;28;20478;-81
2023/08/27 00:27:22;;;;;;;41.63;4.70;;;15.90;1.00;;;;;;5015418;28;20249;-82
2023/08/27 00:30:10;;;;;;;38.57;4.80;;;15.80;1.00;;;;;;5024005;28;20722;-81
2023/08/27 00:32:40;;;;;;;43.57;4.80;;;15.80;1.00;;;;;;5029488;28;20429;-81
2023/08/27 00:35:22;;;;;;;41.03;4.80;;;15.80;1.00;;;;;;5028470;28;20814;-81
2023/08/27 00:37:52;;;;;;;38.17;4.80;;;15.80;1.00;;;;;;5037665;28;20944;-81
2023/08/27 00:40:29;;;;;;;44.37;4.77;;;15.80;1.00;;;;;;5029242;28;20934;-81
2023/08/27 00:43:04;;;;;;;37.77;5.07;;;15.70;1.00;;;;;;5020288;28;20460;-81
2023/08/27 00:45:34;;;;;;;44.33;5.17;;;15.70;1.00;;;;;;5036845;28;20968;-81
2023/08/27 00:48:00;;;;;;;39.30;4.60;;;15.70;1.00;;;;;;5035256;28;20436;-81
2023/08/27 00:50:58;;;;;;;37.40;5.30;;;15.70;1.00;;;;;;5025756;28;20804;-81
2023/08/27 00:53:24;;;;;;;38.83;4.93;;;15.70;1.00;;;;;;5030576;28;20336;-80
2023/08/27 00:55:51;;;;;;;36.63;4.60;;;15.60;1.00;;;;;;5033908;28;20976;-79
2023/08/27 00:58:28;;;;;;;44.17;5.70;;;15.60;1.00;;;;;;5025657;28;20193;-79
2023/08/27 01:00:54;;;;;;;40.87;4.87;;;15.50;1.00;;;;;;5030990;28;20391;-79
2023/08/27 01:03:22;;;;;;;35.80;4.63;;;15.60;1.00;;;;;;5027003;28;20434;-79
2023/08/27 01:05:58;;;;;;;40.13;4.30;;;15.60;1.00;;;;;;5023352;28;20640;-79
2023/08/27 01:08:48;;;;;;;40.90;5.00;;;15.60;1.00;;;;;;5030655;28;20487;-81
2023/08/27 01:11:55;;;;;;;36.60;4.77;;;15.50;1.00;;;;;;5035634;28;20415;-81
2023/08/27 01:14:23;;;;;;;40.17;4.97;;;15.60;1.00;;;;;;5027843;28;20482;-82
2023/08/27 01:16:53;;;;;;;40.73;4.90;;;15.60;1.00;;;;;;5032058;28;20475;-82
2023/08/27 01:20:05;;;;;;;37.97;4.80;;;15.60;1.00;;;;;;5025773;28;20408;-81
2023/08/27 01:22:52;;;;;;;46.47;5.37;;;15.60;1.00;;;;;;5036327;28;20903;-82
2023/08/27 01:25:39;;;;;;;45.13;5.00;;;15.70;1.00;;;;;;5023837;28;20382;-79
2023/08/27 01:28:19;;;;;;;54.03;4.90;;;15.60;1.00;;;;;;5032054;28;20428;-79
2023/08/27 01:31:03;;;;;;;39.10;5.30;;;15.70;1.00;;;;;;5036482;28;20395;-79
2023/08/27 01:33:31;;;;;;;38.10;4.50;;;15.60;1.00;;;;;;5023272;28;20390;-79
2023/08/27 01:36:46;;;;;;;43.50;5.03;;;15.60;1.00;;;;;;5023404;28;20494;-79
2023/08/27 01:39:23;;;;;;;44.13;5.03;;;15.60;1.00;;;;;;5027984;28;20438;-80
2023/08/27 01:41:52;;;;;;;42.70;4.63;;;15.70;1.00;;;;;;5033026;28;20421;-79
2023/08/27 01:44:23;;;;;;;37.20;5.03;;;15.60;1.00;;;;;;5035512;28;20931;-79
2023/08/27 01:47:05;;;;;;;40.20;4.53;;;15.60;1.00;;;;;;5018389;28;20408;-79
2023/08/27 01:49:31;;;;;;;46.13;5.67;;;15.60;1.00;;;;;;5029911;28;20859;-79
2023/08/27 01:52:16;;;;;;;39.90;4.83;;;15.60;1.00;;;;;;5026755;28;20489;-79
2023/08/27 01:54:58;;;;;;;40.13;4.70;;;15.50;1.00;;;;;;5023582;28;20208;-79
2023/08/27 01:57:34;;;;;;;42.40;4.73;;;15.60;1.00;;;;;;5035245;28;20904;-79
2023/08/27 02:00:11;;;;;;;41.93;5.27;;;15.60;1.00;;;;;;5035790;28;20784;-80
2023/08/27 02:02:46;;;;;;;40.17;5.30;;;15.50;1.00;;;;;;5035736;28;20416;-79
2023/08/27 02:05:40;;;;;;;37.10;5.33;;;15.60;1.00;;;;;;5016078;28;20374;-79
2023/08/27 02:08:06;;;;;;;42.90;5.20;;;15.60;1.00;;;;;;5025863;28;20412;-79
2023/08/27 02:10:32;;;;;;;38.73;4.90;;;15.60;1.00;;;;;;5031959;28;20429;-79
2023/08/27 02:12:57;;;;;;;43.43;4.80;;;15.60;1.00;;;;;;5025548;28;20169;-79
2023/08/27 02:15:23;;;;;;;48.67;4.83;;;15.50;1.00;;;;;;5028182;28;20172;-79
2023/08/27 02:17:52;;;;;;;39.73;5.57;;;15.50;1.00;;;;;;5030450;28;20189;-80
2023/08/27 02:20:22;;;;;;;36.27;4.60;;;15.60;1.00;;;;;;5022243;28;20703;-79
2023/08/27 02:22:54;;;;;;;40.80;4.80;;;15.60;1.00;;;;;;5035572;28;20386;-79
2023/08/27 02:25:34;;;;;;;37.10;5.17;;;15.60;1.00;;;;;;5022247;28;20781;-79
2023/08/27 02:28:04;;;;;;;41.73;4.97;;;15.60;1.00;;;;;;5034100;28;20433;-79
2023/08/27 02:30:34;;;;;;;42.27;4.13;;;15.70;1.00;;;;;;5014334;28;20919;-79
2023/08/27 02:33:04;;;;;;;38.03;4.50;;;15.60;1.00;;;;;;5029686;28;20771;-79
2023/08/27 02:35:34;;;;;;;39.50;4.37;;;15.80;1.00;;;;;;5027531;28;20995;-79
2023/08/27 02:38:40;;;;;;;38.17;4.97;;;15.70;1.00;;;;;;5022338;28;20954;-79
2023/08/27 02:41:10;;;;;;;38.40;4.97;;;15.70;1.00;;;;;;5021304;28;20454;-80
2023/08/27 02:43:40;;;;;;;44.73;4.90;;;15.60;1.00;;;;;;5028557;28;20427;-79
2023/08/27 02:46:40;;;;;;;43.33;5.00;;;15.80;1.00;;;;;;5032265;28;20387;-79
2023/08/27 02:49:06;;;;;;;44.67;5.23;;;15.60;1.00;;;;;;5031992;28;20419;-79
2023/08/27 02:51:58;;;;;;;38.83;5.37;;;15.60;1.00;;;;;;5035042;28;20375;-79
2023/08/27 02:54:34;;;;;;;48.90;5.17;;;15.50;1.00;;;;;;5019129;28;20193;-81
2023/08/27 02:57:10;;;;;;;39.50;5.00;;;15.50;1.00;;;;;;5029671;28;20426;-82
2023/08/27 02:59:46;;;;;;;37.57;4.80;;;15.60;1.00;;;;;;5034475;28;20958;-82
2023/08/27 03:02:16;;;;;;;40.13;4.50;;;15.60;1.00;;;;;;5021248;28;20378;-82
2023/08/27 03:05:05;;;;;;;37.37;4.83;;;15.60;1.00;;;;;;5025560;28;20481;-82
2023/08/27 03:07:34;;;;;;;38.17;4.57;;;15.60;1.00;;;;;;5033082;28;20387;-81
2023/08/27 03:10:05;;;;;;;39.70;5.20;;;15.60;1.00;;;;;;5033649;28;20396;-80
2023/08/27 03:12:31;;;;;;;37.10;4.40;;;15.60;1.00;;;;;;5021025;28;20398;-79
2023/08/27 03:15:10;;;;;;;38.33;4.83;;;15.60;1.00;;;;;;5032846;28;20919;-79
2023/08/27 03:18:10;;;;;;;57.83;5.57;;;15.70;1.00;;;;;;5023041;28;20194;-79
2023/08/27 03:20:40;;;;;;;45.40;4.70;;;15.70;1.00;;;;;;5019798;28;20415;-79
2023/08/27 03:23:10;;;;;;;49.73;4.87;;;15.70;1.00;;;;;;5020725;28;20733;-79
2023/08/27 03:25:58;;;;;;;50.30;4.90;;;15.70;1.00;;;;;;5029593;28;20851;-81
2023/08/27 03:28:41;;;;;;;46.23;4.70;;;15.60;1.00;;;;;;5028504;28;20399;-85
2023/08/27 03:34:46;;;;;;;43.10;5.00;;;15.60;1.00;;;;;;5014670;28;20446;-85
2023/08/27 03:40:34;;;;;;;44.27;5.43;;;15.60;1.00;;;;;;5024568;28;20443;-80
2023/08/27 03:43:04;;;;;;;51.27;5.47;;;15.60;1.00;;;;;;5030335;28;20888;-79
2023/08/27 03:45:46;;;;;;;42.33;5.43;;;15.70;1.00;;;;;;5013091;28;20170;-79
2023/08/27 03:48:28;;;;;;;37.70;4.93;;;15.60;1.00;;;;;;5032798;28;20422;-79
2023/08/27 03:50:58;;;;;;;41.23;5.57;;;15.60;1.00;;;;;;5020685;28;20383;-79
2023/08/27 03:53:40;;;;;;;41.37;5.87;;;15.60;1.00;;;;;;5030209;28;20549;-79
2023/08/27 03:56:06;;;;;;;44.30;5.80;;;15.50;1.00;;;;;;5031997;28;20470;-79
2023/08/27 03:58:34;;;;;;;43.90;5.90;;;15.50;1.00;;;;;;5034029;28;20470;-79
2023/08/27 04:01:16;;;;;;;40.70;5.10;;;15.50;1.00;;;;;;5017907;28;20188;-79
2023/08/27 04:04:16;;;;;;;39.70;5.53;;;15.50;1.00;;;;;;5030970;28;20411;-79
2023/08/27 04:06:47;;;;;;;37.10;5.10;;;15.50;1.00;;;;;;5028436;28;20786;-79
2023/08/27 04:09:12;;;;;;;37.00;5.27;;;15.50;1.00;;;;;;5020291;28;20386;-79
2023/08/27 04:11:41;;;;;;;38.93;5.97;;;15.50;1.00;;;;;;5020185;28;20922;-80
2023/08/27 04:14:23;;;;;;;45.33;5.60;;;15.50;1.00;;;;;;5032260;28;20169;-79
2023/08/27 04:17:10;;;;;;;43.87;5.20;;;15.50;1.00;;;;;;5031516;28;20791;-79
2023/08/27 04:23:28;;;;;;;42.00;5.40;;;15.50;1.00;;;;;;5013797;28;20431;-79
2023/08/27 04:26:40;;;;;;;44.27;5.00;;;15.40;1.00;;;;;;5023265;28;21007;-83
2023/08/27 04:32:27;;;;;;;53.47;5.83;;;15.40;1.00;;;;;;5024528;28;20467;-84
2023/08/27 04:35:16;;;;;;;44.77;5.57;;;15.40;1.00;;;;;;5019358;28;20470;-85
2023/08/27 04:41:04;;;;;;;42.43;5.20;;;15.30;1.00;;;;;;5032518;28;20434;-80
2023/08/27 04:43:40;;;;;;;44.90;5.60;;;15.30;1.00;;;;;;5021143;28;20423;-80
2023/08/27 04:46:06;;;;;;;39.23;5.40;;;15.40;1.00;;;;;;5018921;28;20209;-80
2023/08/27 04:48:32;;;;;;;39.40;5.33;;;15.30;1.00;;;;;;5020901;28;20457;-80
2023/08/27 04:50:58;;;;;;;42.40;5.03;;;15.30;1.00;;;;;;5024995;28;20185;-79
2023/08/27 04:53:26;;;;;;;40.33;5.93;;;15.30;2.00;;;;;;5021815;28;20264;-79
2023/08/27 04:55:52;;;;;;;43.47;6.30;;;15.30;2.50;;;;;;5032559;28;20180;-85
2023/08/27 04:58:34;;;;;;;45.23;5.77;;;15.30;4.60;;;;;;5024430;28;20501;-85
2023/08/27 05:01:00;;;;;;;41.30;5.63;;;15.30;6.10;;;;;;5031523;28;20405;-85
2023/08/27 05:07:22;;;;;;;40.80;6.37;;;15.40;4.60;;;;;;5026019;28;20183;-85
2023/08/27 05:10:22;;;;;;;53.37;5.73;;;15.50;1.00;;;;;;5022060;28;20395;-85
2023/08/27 05:12:48;;;;;;;43.03;5.90;;;15.40;3.50;;;;;;5028695;28;20397;-79
2023/08/27 05:15:20;;;;;;;40.97;5.73;;;15.50;4.70;;;;;;5023294;28;20449;-79
2023/08/27 05:17:48;;;;;;;46.00;6.07;;;15.60;5.50;;;;;;5035412;28;20685;-80
2023/08/27 05:20:15;;;;;;;38.33;5.87;;;15.60;4.30;;;;;;5033761;28;20394;-79
2023/08/27 05:22:46;;;;;;;42.30;5.80;;;15.60;4.90;;;;;;5030269;28;20880;-79
2023/08/27 05:25:46;;;;;;;50.73;6.50;;;15.70;4.10;;;;;;5020019;28;20404;-79
2023/08/27 05:28:12;;;;;;;44.37;5.70;;;15.60;1.70;;;;;;5036463;28;20417;-79
2023/08/27 05:30:42;;;;;;;42.27;5.30;;;15.90;3.20;;;;;;5036551;28;20420;-80
2023/08/27 05:33:08;;;;;;;37.07;5.40;;;15.90;3.30;;;;;;5033631;28;20173;-79
2023/08/27 05:39:10;;;;;;;45.73;5.83;;;15.90;1.00;;;;;;5018795;28;20189;-79
2023/08/27 05:41:46;;;;;;;42.07;5.20;;;16.00;1.00;;;;;;5034945;28;20444;-80
2023/08/27 05:44:17;;;;;;;40.80;6.00;;;16.00;1.00;;;;;;5036225;28;20434;-79
2023/08/27 05:46:46;;;;;;;39.40;5.67;;;16.00;1.00;;;;;;5022312;28;20418;-80
2023/08/27 05:49:34;;;;;;;44.47;5.40;;;16.10;1.00;;;;;;5023251;28;20482;-79
2023/08/27 05:52:00;;;;;;;38.23;5.40;;;16.20;1.00;;;;;;5027444;28;20520;-79
2023/08/27 05:54:28;;;;;;;50.53;5.87;;;16.20;1.00;;;;;;5027683;28;20498;-79
2023/08/27 05:56:54;;;;;;;45.97;5.63;;;16.30;1.00;;;;;;5021802;28;20668;-80
2023/08/27 05:59:28;;;;;;;43.90;5.40;;;16.30;1.00;;;;;;5032349;28;20435;-79
2023/08/27 06:01:59;;;;;;;38.33;5.40;;;16.40;1.00;;;;;;5033396;28;20644;-79
2023/08/27 06:04:25;;;;;;;41.80;5.60;;;16.50;1.00;;;;;;5028533;28;20429;-79
2023/08/27 06:06:58;;;;;;;46.33;5.30;;;16.60;1.00;;;;;;5028582;28;20475;-80
2023/08/27 06:09:28;;;;;;;38.67;5.50;;;16.70;1.00;;;;;;5018181;28;20646;-80
2023/08/27 06:12:10;;;;;;;37.57;5.40;;;16.80;1.00;;;;;;5027686;28;20421;-84
2023/08/27 06:15:16;;;;;;;44.77;5.10;;;16.90;1.00;;;;;;5033785;28;20429;-84
2023/08/27 06:21:04;;;;;;;44.87;5.73;;;17.30;1.00;;;;;;5034145;28;20422;-84
2023/08/27 06:23:52;;;;;;;38.20;4.70;;;17.50;1.00;;;;;;5034429;28;20417;-84
2023/08/27 06:26:23;;;;;;;41.73;5.23;;;17.60;1.00;;;;;;5028472;28;20431;-84
2023/08/27 06:29:22;;;;;;;50.07;5.30;;;17.70;1.00;;;;;;5032901;28;20428;-84
2023/08/27 06:31:48;;;;;;;38.63;4.77;;;17.80;1.00;;;;;;5031312;28;20444;-85
2023/08/27 06:34:34;;;;;;;37.67;4.23;;;17.90;1.00;;;;;;5029610;28;20450;-85
2023/08/27 06:37:22;;;;;;;40.87;5.23;;;18.00;1.00;;;;;;5022237;28;20261;-85
2023/08/27 06:40:11;;;;;;;39.97;5.07;;;18.10;1.00;;;;;;5034062;28;20413;-84
2023/08/27 06:42:52;;;;;;;37.73;4.50;;;18.30;1.00;;;;;;5021272;28;20427;-80
2023/08/27 06:45:28;;;;;;;40.80;4.90;;;18.40;1.00;;;;;;5033675;28;20768;-79
2023/08/27 06:48:10;;;;;;;47.60;5.00;;;18.50;1.00;;;;;;5021401;28;20439;-79
2023/08/27 06:50:46;;;;;;;44.50;6.37;;;18.60;1.00;;;;;;5035090;28;20396;-80
2023/08/27 06:53:22;;;;;;;39.70;4.93;;;18.60;1.00;;;;;;5021032;28;20441;-79
2023/08/27 06:56:04;;;;;;;39.00;4.37;;;18.60;1.00;;;;;;5021572;28;20847;-79
2023/08/27 06:58:35;;;;;;;37.50;4.57;;;18.60;1.00;;;;;;5033122;28;20515;-84
2023/08/27 07:01:28;;;;;;;40.97;4.50;;;18.50;1.00;;;;;;5031501;28;20458;-84
2023/08/27 07:03:54;;;;;;;39.00;4.77;;;18.60;1.00;;;;;;5033917;28;20423;-85
2023/08/27 07:06:29;;;;;;;47.43;5.30;;;18.70;1.00;;;;;;5033750;28;20399;-84
2023/08/27 07:09:05;;;;;;;42.37;5.47;;;18.90;1.00;;;;;;5027768;28;20175;-84
2023/08/27 07:11:37;;;;;;;39.87;5.57;;;19.20;1.00;;;;;;5023255;28;20506;-84
2023/08/27 07:14:04;;;;;;;42.33;5.50;;;19.30;1.00;;;;;;5028882;28;20852;-81
2023/08/27 07:17:04;;;;;;;40.27;5.77;;;19.50;1.00;;;;;;5021761;28;20382;-80
2023/08/27 07:19:34;;;;;;;41.57;6.30;;;19.70;1.00;;;;;;5031500;28;20402;-79
2023/08/27 07:22:00;;;;;;;43.10;7.33;;;19.60;1.00;;;;;;5017469;28;20455;-80
2023/08/27 07:24:26;;;;;;;44.13;7.00;;;19.60;1.00;;;;;;5022548;28;20932;-80
2023/08/27 07:26:52;;;;;;;41.80;6.43;;;19.70;1.00;;;;;;5020661;28;20627;-80
2023/08/27 07:29:22;;;;;;;43.47;6.97;;;19.70;1.00;;;;;;5020771;28;20645;-79
2023/08/27 07:31:52;;;;;;;45.50;7.70;;;20.10;1.00;;;;;;5027638;28;20186;-79
2023/08/27 07:34:28;;;;;;;48.10;8.13;;;20.10;1.00;;;;;;5032901;28;20439;-80
2023/08/27 07:37:04;;;;;;;44.80;7.30;;;20.30;1.00;;;;;;5020099;28;20860;-79
2023/08/27 07:39:30;;;;;;;44.17;7.27;;;20.40;1.00;;;;;;5026342;28;20447;-80
2023/08/27 07:42:22;;;;;;;41.27;6.90;;;20.50;1.00;;;;;;5022933;28;20456;-81
2023/08/27 07:45:16;;;;;;;42.23;5.83;;;20.60;1.00;;;;;;5018149;28;20170;-83
2023/08/27 07:48:04;;;;;;;45.17;6.63;;;20.50;1.00;;;;;;5026549;28;20435;-82
2023/08/27 07:50:52;;;;;;;44.00;6.90;;;20.50;1.00;;;;;;5030451;28;20424;-82
2023/08/27 07:53:34;;;;;;;43.77;6.53;;;20.40;1.00;;;;;;5021241;28;20430;-82
2023/08/27 07:56:04;;;;;;;42.37;6.40;;;20.40;1.00;;;;;;5033803;28;20799;-82
2023/08/27 07:58:34;;;;;;;41.27;5.67;;;20.40;1.00;;;;;;5024254;28;20427;-80
2023/08/27 08:01:04;;;;;;;42.20;6.50;;;20.50;1.00;;;;;;5033461;28;20842;-80
2023/08/27 08:03:41;;;;;;;41.73;6.80;;;20.50;1.00;;;;;;5027712;28;20520;-80
2023/08/27 08:06:08;;;;;;;45.33;6.53;;;20.50;1.00;;;;;;5021226;28;20405;-79
2023/08/27 08:08:34;;;;;;;49.00;7.27;;;20.60;1.00;;;;;;5032698;28;20503;-79
2023/08/27 08:11:01;;;;;;;39.80;6.20;;;20.50;1.00;;;;;;5032607;28;20908;-81
2023/08/27 08:13:46;;;;;;;43.40;6.33;;;20.60;1.00;;;;;;5033590;28;20468;-82
2023/08/27 08:16:28;;;;;;;40.20;5.47;;;20.90;1.00;;;;;;5033545;28;20479;-82
2023/08/27 08:19:04;;;;;;;40.60;5.13;;;21.10;1.00;;;;;;5024353;28;20799;-81
2023/08/27 08:21:40;;;;;;;44.87;5.70;;;21.30;1.00;;;;;;5033112;28;20896;-83
2023/08/27 08:24:34;;;;;;;40.70;5.97;;;21.40;1.00;;;;;;5033579;28;20873;-81
2023/08/27 08:27:06;;;;;;;39.47;5.83;;;21.60;1.00;;;;;;5030525;28;20429;-82
2023/08/27 08:29:53;;;;;;;42.70;5.20;;;21.60;1.00;;;;;;5025761;28;20442;-82
2023/08/27 08:32:19;;;;;;;39.60;5.53;;;21.70;1.00;;;;;;5020574;28;20450;-84
2023/08/27 08:35:04;;;;;;;39.77;4.50;;;21.80;1.00;;;;;;5031595;28;20458;-81
2023/08/27 08:37:34;;;;;;;38.17;4.50;;;22.00;1.00;;;;;;5012839;28;20469;-81
2023/08/27 08:40:52;;;;;;;37.70;4.90;;;22.00;1.00;;;;;;5017387;28;20440;-80
2023/08/27 08:43:44;;;;;;;39.30;5.17;;;22.20;1.00;;;;;;5026343;28;20439;-80
2023/08/27 08:46:34;;;;;;;41.83;6.13;;;22.20;1.00;;;;;;5022137;28;20425;-83
2023/08/27 08:49:10;;;;;;;42.70;5.77;;;22.10;1.00;;;;;;5021050;28;20438;-83
2023/08/27 08:51:59;;;;;;;43.27;6.47;;;22.10;1.00;;;;;;5032656;28;20402;-84
2023/08/27 08:54:29;;;;;;;45.67;7.40;;;22.20;1.00;;;;;;5048727;28;20427;-84
2023/08/27 08:57:00;;;;;;;47.53;7.13;;;22.30;1.00;;;;;;5036956;28;20463;-83
2023/08/27 08:59:35;;;;;;;44.47;7.30;;;22.30;1.00;;;;;;5025161;28;20462;-83
2023/08/27 09:02:12;;;;;;;48.10;8.70;;;22.50;1.00;;;;;;5024910;28;20779;-84
2023/08/27 09:04:39;;;;;;;52.80;11.37;;;22.30;1.00;;;;;;5016936;28;20427;-85
2023/08/27 09:07:17;;;;;;;58.10;12.13;;;22.30;1.00;;;;;;5019607;28;20434;-84
2023/08/27 09:09:44;;;;;;;60.00;14.17;;;21.60;1.00;;;;;;5020976;28;20445;-84
2023/08/27 09:12:19;;;;;;;54.97;13.73;;;21.20;1.00;;;;;;5029952;28;20520;-84
2023/08/27 09:15:04;;;;;;;60.60;12.87;;;21.40;1.00;;;;;;5021426;28;20505;-84
2023/08/27 09:17:39;;;;;;;52.43;12.07;;;;;;;;;;5017120;28;20447;-84
2023/08/27 09:20:07;;;;;;;49.97;11.50;;;21.50;1.00;;;;;;5017329;28;20398;-83
2023/08/27 09:22:35;;;;;;;51.90;11.50;;;21.60;1.00;;;;;;5022168;28;20442;-84
2023/08/27 09:25:05;;;;;;;52.27;11.23;;;21.80;1.00;;;;;;5032688;28;20781;-83
2023/08/27 09:27:35;;;;;;;55.87;10.63;;;21.90;1.00;;;;;;5033643;28;20441;-84
2023/08/27 09:30:05;;;;;;;51.10;11.50;;;22.00;1.00;;;;;;5024904;28;20428;-84
2023/08/27 09:32:34;;;;;;;51.13;10.20;;;21.90;1.00;;;;;;5036129;28;20434;-83
2023/08/27 09:35:03;;;;;;;48.20;9.93;;;21.80;1.00;;;;;;5029185;28;20497;-83
2023/08/27 09:37:42;;;;;;;47.47;9.67;;;22.20;1.00;;;;;;5030770;28;20457;-83
2023/08/27 09:40:34;;;;;;;45.47;9.90;;;22.20;1.00;;;;;;5022981;28;20422;-83
2023/08/27 09:43:34;;;;;;;46.73;9.30;;;22.40;1.00;;;;;;5033457;28;20446;-84
2023/08/27 09:46:10;;;;;;;46.43;9.73;;;22.80;1.00;;;;;;5021758;28;20475;-84
2023/08/27 09:48:36;;;;;;;50.70;10.60;;;22.50;1.00;;;;;;5026479;28;20431;-84
2023/08/27 09:51:05;;;;;;;50.30;9.23;;;22.50;1.00;;;;;;5023366;28;20439;-85
2023/08/27 09:53:35;;;;;;;46.07;9.90;;;22.80;1.00;;;;;;5025082;28;20459;-84
2023/08/27 09:56:04;;;;;;;49.23;10.63;;;23.10;1.00;;;;;;5029472;28;20945;-84
2023/08/27 09:58:30;;;;;;;49.20;10.20;;;23.40;1.00;;;;;;5018104;28;20468;-82
2023/08/27 10:01:00;;;;;;;51.80;9.90;;;23.30;1.00;;;;;;5026851;28;20405;-81
2023/08/27 10:03:29;;;;;;;48.17;9.13;;;23.40;1.00;;;;;;5027194;28;20175;-82
2023/08/27 10:06:01;;;;;;;51.20;9.73;;;23.50;1.00;;;;;;5028256;28;20940;-81
2023/08/27 10:08:27;;;;;;;43.17;8.57;;;23.40;1.00;;;;;;5016741;28;20911;-81
2023/08/27 10:11:15;;;;;;;47.77;9.00;;;23.50;1.00;;;;;;5018224;28;20910;-81
2023/08/27 10:13:43;;;;;;;39.50;7.80;;;23.70;1.00;;;;;;5028046;28;20186;-82
2023/08/27 10:16:12;;;;;;;42.70;8.87;;;23.70;1.00;;;;;;5024528;28;20409;-81
2023/08/27 10:18:53;;;;;;;42.33;7.77;;;24.00;1.00;;;;;;5032697;28;20490;-81
2023/08/27 10:21:19;;;;;;;47.10;8.07;;;24.00;1.00;;;;;;5032889;28;20437;-81
2023/08/27 10:23:46;;;;;;;40.33;7.43;;;24.10;1.00;;;;;;5033240;28;20417;-82
2023/08/27 10:26:17;;;;;;;47.77;7.57;;;24.50;1.00;;;;;;5024105;28;20248;-81
2023/08/27 10:28:44;;;;;;;42.37;5.97;;;24.60;1.00;;;;;;5023999;28;20870;-82
2023/08/27 10:31:13;;;;;;;39.33;5.30;;;25.00;1.00;;;;;;5026570;28;20422;-82
2023/08/27 10:33:41;;;;;;;43.70;5.30;;;25.40;1.00;;;;;;5029425;28;20417;-82
2023/08/27 10:36:23;;;;;;;37.37;5.17;;;25.50;1.00;;;;;;5026570;28;20424;-81
2023/08/27 10:39:03;;;;;;;38.10;4.40;;;25.70;1.00;;;;;;5035157;28;20420;-82
2023/08/27 10:41:35;;;;;;;39.47;4.80;;;25.60;1.00;;;;;;5025171;28;20440;-82
2023/08/27 10:44:22;;;;;;;37.63;4.90;;;25.40;1.00;;;;;;5023963;28;20814;-83
2023/08/27 10:47:12;;;;;;;35.47;4.33;;;24.90;1.00;;;;;;5020573;28;20921;-82
2023/08/27 10:49:51;;;;;;;38.77;4.70;;;24.90;1.00;;;;;;5027738;28;20863;-81
2023/08/27 10:52:49;;;;;;;36.37;4.77;;;25.00;1.00;;;;;;5030325;28;20413;-82
2023/08/27 10:55:19;;;;;;;34.13;3.90;;;24.80;1.00;;;;;;5024012;28;20853;-82
2023/08/27 10:57:45;;;;;;;39.60;4.40;;;24.90;1.00;;;;;;5027988;28;20462;-82
2023/08/27 11:01:02;;;;;;;47.53;3.70;;;25.10;1.00;;;;;;5020876;28;20417;-85
2023/08/27 11:03:48;;;;;;;33.50;3.60;;;24.90;1.00;;;;;;4985634;28;20697;-85
2023/08/27 11:06:17;;;;;;;32.50;3.20;;;25.00;1.00;;;;;;4977154;28;20483;-85
2023/08/27 11:09:29;;;;;;;32.50;3.00;;;24.90;1.00;;;;;;4992455;28;20481;-85
2023/08/27 11:12:06;;;;;;;32.70;3.60;;;24.80;1.00;;;;;;4964174;28;20469;-85
2023/08/27 11:14:53;;;;;;;36.83;3.70;;;24.70;1.00;;;;;;4992558;28;20465;-82
2023/08/27 11:17:24;;;;;;;33.63;3.70;;;24.70;1.00;;;;;;4986703;28;20472;-81
2023/08/27 11:20:30;;;;;;;35.20;3.70;;;24.50;1.00;;;;;;4986915;28;20478;-82
2023/08/27 11:23:16;;;;;;;34.13;3.63;;;24.50;1.00;;;;;;4974839;28;20422;-82
2023/08/27 11:25:48;;;;;;;37.60;3.40;;;24.60;1.00;;;;;;4991960;28;20522;-82
2023/08/27 11:28:47;;;;;;;32.70;3.40;;;24.20;1.00;;;;;;4976371;28;21013;-82
2023/08/27 11:38:16;;;;;;;33.90;2.87;;;24.30;1.00;;;;;;4974985;28;21035;-84
2023/08/27 11:44:06;;;;;;;33.27;3.10;;;24.30;1.00;;;;;;5028485;28;20944;-84
2023/08/27 11:46:35;;;;;;;36.40;3.20;;;24.60;1.00;;;;;;5022594;28;20422;-80
2023/08/27 11:49:05;;;;;;;32.47;3.10;;;24.30;1.00;;;;;;5027221;28;20439;-80
2023/08/27 11:51:41;;;;;;;36.20;3.43;;;24.40;1.00;;;;;;5020598;28;20512;-79
2023/08/27 11:54:17;;;;;;;36.50;3.80;;;24.50;1.00;;;;;;5028327;28;20467;-79
2023/08/27 11:56:49;;;;;;;35.27;3.87;;;24.40;1.00;;;;;;5022873;28;20803;-80
2023/08/27 11:59:17;;;;;;;35.10;3.83;;;24.40;1.00;;;;;;5018360;28;20441;-80
2023/08/27 12:02:11;;;;;;;34.20;3.50;;;24.60;1.00;;;;;;5024430;28;20410;-80
2023/08/27 12:04:47;;;;;;;34.40;3.50;;;25.10;1.00;;;;;;5033677;28;20478;-79
2023/08/27 12:07:34;;;;;;;33.97;4.20;;;25.20;1.00;;;;;;5030511;28;20416;-80
2023/08/27 12:10:09;;;;;;;34.03;3.90;;;25.00;1.00;;;;;;5022182;28;20420;-80
2023/08/27 12:12:42;;;;;;;34.57;4.10;;;24.90;1.00;;;;;;5022565;28;20432;-80
2023/08/27 12:15:17;;;;;;;35.13;4.37;;;24.90;1.00;;;;;;5023429;28;20430;-85
2023/08/27 12:17:47;;;;;;;32.23;3.60;;;25.20;1.00;;;;;;5028788;28;20454;-85
2023/08/27 12:20:13;;;;;;;34.00;3.40;;;25.30;1.00;;;;;;5028423;28;20500;-84
2023/08/27 12:22:52;;;;;;;33.97;3.67;;;25.30;1.00;;;;;;5031138;28;20415;-85
2023/08/27 12:26:02;;;;;;;35.00;3.20;;;25.40;1.00;;;;;;5031789;28;20475;-85
2023/08/27 12:28:31;;;;;;;32.10;3.20;;;25.50;1.00;;;;;;5031305;28;20774;-85
2023/08/27 12:31:40;;;;;;;31.53;2.67;;;25.50;1.00;;;;;;5024291;28;20431;-85
2023/08/27 12:34:10;;;;;;;29.90;1.97;;;25.30;1.00;;;;;;5014892;28;20432;-85
2023/08/27 12:36:36;;;;;;;32.27;2.60;;;25.20;1.00;;;;;;5034170;28;20407;-85
2023/08/27 12:39:03;;;;;;;30.30;2.00;;;24.80;1.00;;;;;;5041382;28;20411;-85
2023/08/27 12:41:29;;;;;;;31.80;2.50;;;24.90;1.00;;;;;;5021125;28;20182;-85
2023/08/27 12:43:55;;;;;;;32.17;2.63;;;24.80;1.00;;;;;;5029103;28;20923;-84
2023/08/27 12:46:23;;;;;;;34.60;2.73;;;24.90;1.00;;;;;;5031473;28;20456;-85
2023/08/27 12:48:52;;;;;;;31.80;2.83;;;24.80;1.00;;;;;;5017458;28;20187;-84
2023/08/27 12:51:22;;;;;;;32.73;2.73;;;25.00;1.00;;;;;;5031571;28;20425;-85
2023/08/27 12:53:59;;;;;;;32.77;2.30;;;24.70;1.00;;;;;;5022292;28;20440;-84
2023/08/27 12:56:24;;;;;;;33.90;2.00;;;24.70;1.00;;;;;;5024268;28;20538;-84
2023/08/27 12:59:10;;;;;;;29.97;1.80;;;24.60;1.00;;;;;;5027270;28;20550;-89
2023/08/27 13:01:41;;;;;;;34.97;1.87;;;24.50;1.00;;;;;;5023640;28;20932;-81
2023/08/27 13:04:11;;;;;;;31.93;2.10;;;24.30;1.00;;;;;;5029588;28;20521;-81
2023/08/27 13:07:22;;;;;;;33.23;2.37;;;24.10;1.00;;;;;;5031887;28;20505;-84
2023/08/27 13:13:23;;;;;;;39.17;3.03;;;23.30;1.00;;;;;;5015246;28;20453;-86
2023/08/27 13:16:28;;;;;;;40.20;4.33;;;22.40;1.00;;;;;;5027644;28;20421;-88
2023/08/27 13:22:52;;;;;;;40.73;3.70;;;22.00;1.00;;;;;;5022668;28;20423;-87
2023/08/27 13:25:29;;;;;;;37.77;3.53;;;22.00;1.00;;;;;;5026821;28;20433;-87
2023/08/27 13:31:16;;;;;;;40.53;4.50;;;21.70;1.00;;;;;;5022768;28;20456;-86
2023/08/27 13:34:18;;;;;;;38.33;3.47;;;21.70;1.00;;;;;;5032187;28;20433;-86
2023/08/27 13:36:44;;;;;;;40.00;4.27;;;21.80;1.00;;;;;;5023500;28;20183;-83
2023/08/27 13:42:41;;;;;;;37.80;3.33;;;22.20;1.00;;;;;;5021767;28;20487;-83
2023/08/27 13:45:34;;;;;;;38.00;3.57;;;;;;;;;;5028985;28;20403;-82
2023/08/27 13:48:05;;;;;;;39.43;3.50;;;22.40;1.00;;;;;;5030675;28;20443;-85
2023/08/27 13:53:52;;;;;;;37.67;2.70;;;22.20;1.00;;;;;;5016571;28;20453;-86
2023/08/27 13:56:34;;;;;;;34.10;2.30;;;22.40;1.00;;;;;;5035191;28;20417;-86
2023/08/27 13:59:10;;;;;;;36.47;2.50;;;22.70;1.00;;;;;;5024552;28;20191;-86
2023/08/27 14:01:58;;;;;;;36.00;2.10;;;22.80;1.00;;;;;;5035052;28;20423;-84
2023/08/27 14:08:10;;;;;;;34.00;2.37;;;23.10;1.00;;;;;;5026741;28;20818;-84
2023/08/27 14:10:58;;;;;;;33.40;2.30;;;23.30;1.00;;;;;;5016257;28;20429;-83
2023/08/27 14:13:38;;;;;;;38.33;2.10;;;;;;;;;;5029125;28;20456;-83
2023/08/27 14:16:12;;;;;;;38.83;2.50;;;23.50;1.00;;;;;;5034868;28;20405;-86
2023/08/27 14:19:04;;;;;;;32.13;2.20;;;23.50;1.00;;;;;;5027410;28;20459;-86
2023/08/27 14:21:40;;;;;;;39.20;1.90;;;23.40;1.00;;;;;;5021889;28;20418;-87
2023/08/27 14:25:03;;;;;;;33.47;1.93;;;23.20;1.00;;;;;;5028826;28;20486;-88
2023/08/27 14:28:04;;;;;;;35.03;2.13;;;22.90;1.00;;;;;;5020484;28;20440;-88
2023/08/27 14:34:28;;;;;;;34.40;2.27;;;22.40;1.00;;;;;;5025498;28;20824;-85
2023/08/27 14:37:05;;;;;;;35.53;1.83;;;22.50;1.00;;;;;;5019916;28;20895;-82
2023/08/27 14:39:35;;;;;;;34.07;1.93;;;22.70;1.00;;;;;;5020754;28;20494;-83
2023/08/27 14:42:05;;;;;;;34.37;1.90;;;22.70;1.00;;;;;;5033503;28;20429;-83